Time;durP1;ratioP1;P1;durP2;ratioP2;P2;SDS_P1;SDS_P2;PMS_P1;PMS_P2;Temp;Humidity;BMP_temperature;BMP_pressure;BME280_temperature;BME280_humidity;BME280_pressure;Samples;Min_cycle;Max_cycle;Signal;HPM_P1;HPM_P2
2022/10/24 00:01:42;;;;;;;22.48;17.55;;;19.70;95.50;;;;;;5053262;28;20467;-74
2022/10/24 00:04:08;;;;;;;25.00;18.23;;;19.70;95.60;;;;;;5054190;28;20326;-74
2022/10/24 00:06:34;;;;;;;24.88;18.77;;;19.60;95.60;;;;;;5052845;28;20024;-73
2022/10/24 00:08:59;;;;;;;22.05;17.05;;;19.60;95.60;;;;;;5054067;28;20031;-73
2022/10/24 00:11:27;;;;;;;24.80;17.73;;;19.50;95.60;;;;;;5054172;28;20029;-73
2022/10/24 00:13:55;;;;;;;22.73;18.13;;;19.50;95.70;;;;;;5054329;28;20021;-73
2022/10/24 00:16:21;;;;;;;28.48;18.55;;;19.50;95.70;;;;;;5054043;28;20428;-73
2022/10/24 00:18:48;;;;;;;22.48;18.45;;;19.40;95.80;;;;;;5052381;28;20049;-72
2022/10/24 00:21:14;;;;;;;22.27;18.50;;;19.40;95.90;;;;;;5054065;28;20063;-74
2022/10/24 00:23:40;;;;;;;23.33;16.98;;;19.40;95.90;;;;;;5053850;28;20055;-73
2022/10/24 00:26:06;;;;;;;24.10;17.90;;;19.30;96.00;;;;;;5053695;28;20490;-73
2022/10/24 00:28:33;;;;;;;24.73;18.98;;;19.30;96.10;;;;;;5053828;28;20024;-74
2022/10/24 00:30:59;;;;;;;24.15;17.88;;;19.30;96.00;;;;;;5052429;28;20043;-72
2022/10/24 00:33:25;;;;;;;24.98;18.30;;;19.30;96.20;;;;;;5053471;28;20364;-73
2022/10/24 00:35:51;;;;;;;24.75;19.00;;;19.30;96.10;;;;;;5053553;28;20025;-73
2022/10/24 00:38:17;;;;;;;23.88;19.02;;;19.20;96.10;;;;;;5053685;28;20509;-73
2022/10/24 00:40:43;;;;;;;26.27;18.85;;;19.10;96.20;;;;;;5052391;28;20021;-74
2022/10/24 00:43:20;;;;;;;24.08;17.92;;;19.10;96.30;;;;;;5052426;28;20070;-74
2022/10/24 00:45:52;;;;;;;23.75;18.58;;;19.10;96.30;;;;;;5053455;28;20025;-73
2022/10/24 00:48:26;;;;;;;26.55;18.73;;;19.10;96.30;;;;;;5053474;28;20490;-73
2022/10/24 00:50:57;;;;;;;24.20;18.20;;;19.00;96.30;;;;;;5053794;28;20083;-72
2022/10/24 00:53:25;;;;;;;23.88;19.65;;;18.90;96.50;;;;;;5053270;28;20021;-72
2022/10/24 00:55:55;;;;;;;26.80;18.60;;;18.90;96.50;;;;;;5053421;28;20036;-73
2022/10/24 00:58:24;;;;;;;24.38;18.40;;;18.90;96.60;;;;;;5053338;28;20044;-73
2022/10/24 01:00:50;;;;;;;22.35;19.20;;;18.90;96.70;;;;;;5053187;28;20377;-74
2022/10/24 01:03:16;;;;;;;25.98;18.90;;;18.90;96.70;;;;;;5052089;28;20104;-75
2022/10/24 01:06:04;;;;;;;24.55;18.52;;;18.90;96.70;;;;;;5053312;28;20099;-73
2022/10/24 01:08:40;;;;;;;26.63;19.95;;;18.90;96.70;;;;;;5052921;28;20028;-72
2022/10/24 01:11:21;;;;;;;21.92;18.90;;;18.90;96.70;;;;;;5033070;28;20044;-73
2022/10/24 01:14:18;;;;;;;28.98;18.90;;;18.90;96.90;;;;;;5032030;28;20525;-74
2022/10/24 01:16:49;;;;;;;22.38;18.02;;;18.80;96.80;;;;;;5033195;28;20018;-73
2022/10/24 01:19:24;;;;;;;25.08;18.80;;;18.80;96.80;;;;;;5031644;28;20058;-72
2022/10/24 01:21:58;;;;;;;25.60;18.58;;;18.90;96.90;;;;;;5033218;28;20093;-74
2022/10/24 01:24:44;;;;;;;24.67;19.02;;;18.80;96.90;;;;;;5033478;28;20084;-73
2022/10/24 01:27:48;;;;;;;25.50;19.30;;;18.80;96.80;;;;;;5033167;28;20107;-72
2022/10/24 01:30:16;;;;;;;23.20;18.95;;;18.80;96.70;;;;;;5033184;28;20083;-74
2022/10/24 01:33:10;;;;;;;27.58;21.67;;;18.80;96.80;;;;;;5033201;28;20026;-73
2022/10/24 01:35:42;;;;;;;23.15;20.13;;;18.80;96.80;;;;;;5032939;28;20030;-75
2022/10/24 01:38:17;;;;;;;27.13;21.85;;;18.70;97.00;;;;;;5033159;28;20053;-75
2022/10/24 01:40:45;;;;;;;26.95;21.60;;;18.70;97.10;;;;;;5031657;28;20049;-74
2022/10/24 01:43:30;;;;;;;26.50;21.10;;;18.70;97.20;;;;;;5032953;28;20083;-73
2022/10/24 01:46:10;;;;;;;27.63;21.75;;;18.70;97.20;;;;;;5032786;28;20100;-73
2022/10/24 01:48:42;;;;;;;29.17;22.25;;;18.70;97.30;;;;;;5032847;28;20026;-75
2022/10/24 01:51:12;;;;;;;27.33;22.83;;;18.60;97.30;;;;;;5032958;28;20028;-74
2022/10/24 01:53:39;;;;;;;28.17;22.02;;;18.70;97.60;;;;;;5033259;28;20037;-73
2022/10/24 01:56:05;;;;;;;25.25;21.38;;;18.60;97.40;;;;;;5033094;28;20025;-74
2022/10/24 01:58:31;;;;;;;29.52;22.25;;;18.70;97.40;;;;;;5031919;28;20037;-73
2022/10/24 02:01:01;;;;;;;28.15;21.15;;;18.60;97.40;;;;;;5033111;28;20022;-71
2022/10/24 02:03:36;;;;;;;32.70;21.63;;;18.60;97.40;;;;;;5033025;28;20025;-72
2022/10/24 02:06:23;;;;;;;27.38;21.77;;;18.70;97.40;;;;;;5036255;28;20026;-78
2022/10/24 02:08:57;;;;;;;24.27;19.88;;;18.70;97.40;;;;;;5036696;28;20504;-77
2022/10/24 02:11:23;;;;;;;25.08;20.00;;;18.60;97.40;;;;;;5036631;28;20037;-72
2022/10/24 02:14:06;;;;;;;23.92;20.17;;;18.50;97.40;;;;;;5036376;28;20033;-74
2022/10/24 02:16:34;;;;;;;28.45;21.52;;;18.50;97.40;;;;;;5036264;28;20033;-77
2022/10/24 02:19:00;;;;;;;25.83;21.30;;;18.50;97.50;;;;;;5036065;28;20061;-72
2022/10/24 02:21:25;;;;;;;28.92;20.95;;;18.40;97.40;;;;;;5036255;28;20026;-75
2022/10/24 02:24:00;;;;;;;28.48;20.33;;;18.50;97.50;;;;;;5036291;28;20037;-73
2022/10/24 02:26:51;;;;;;;26.00;20.88;;;18.40;97.50;;;;;;5034966;28;20052;-72
2022/10/24 02:29:26;;;;;;;28.40;20.10;;;18.50;97.50;;;;;;5036237;28;20401;-77
2022/10/24 02:31:57;;;;;;;26.27;20.13;;;18.40;97.40;;;;;;5036237;28;20105;-72
2022/10/24 02:34:26;;;;;;;24.08;20.08;;;18.40;97.40;;;;;;5035988;28;20029;-73
2022/10/24 02:36:54;;;;;;;25.52;19.55;;;18.40;97.50;;;;;;5035875;28;20467;-75
2022/10/24 02:39:22;;;;;;;23.13;19.75;;;18.40;97.40;;;;;;5034533;28;20502;-76
2022/10/24 02:41:50;;;;;;;31.23;19.98;;;18.40;97.30;;;;;;5036041;28;20022;-73
2022/10/24 02:44:18;;;;;;;25.17;19.13;;;18.40;97.40;;;;;;5034806;28;20071;-76
2022/10/24 02:46:45;;;;;;;26.23;19.33;;;18.40;97.30;;;;;;5034827;28;20105;-75
2022/10/24 02:49:12;;;;;;;25.77;19.70;;;18.50;97.40;;;;;;5036108;28;20021;-73
2022/10/24 02:51:41;;;;;;;22.27;19.60;;;18.40;97.20;;;;;;5034787;28;20026;-74
2022/10/24 02:54:09;;;;;;;25.42;19.30;;;18.40;97.20;;;;;;5034284;28;20355;-76
2022/10/24 02:56:38;;;;;;;27.23;20.10;;;18.40;97.20;;;;;;5035816;28;20099;-73
2022/10/24 02:59:04;;;;;;;26.42;19.85;;;18.30;97.20;;;;;;5034341;28;20037;-73
2022/10/24 03:01:30;;;;;;;21.23;17.65;;;18.30;97.30;;;;;;5035227;28;20025;-73
2022/10/24 03:03:55;;;;;;;26.33;18.83;;;18.30;97.30;;;;;;5034241;28;20112;-76
2022/10/24 03:06:21;;;;;;;22.45;17.90;;;18.30;97.30;;;;;;5034069;28;20079;-74
2022/10/24 03:08:47;;;;;;;25.27;18.58;;;18.30;97.10;;;;;;5035533;28;20378;-77
2022/10/24 03:11:12;;;;;;;29.77;17.50;;;18.30;97.10;;;;;;5035639;28;20021;-74
2022/10/24 03:13:38;;;;;;;23.77;17.75;;;18.30;97.00;;;;;;5035128;28;20025;-73
2022/10/24 03:16:04;;;;;;;26.17;18.40;;;18.30;97.00;;;;;;5035387;28;20417;-77
2022/10/24 03:18:30;;;;;;;23.25;18.08;;;18.20;96.80;;;;;;5035180;28;20140;-74
2022/10/24 03:20:56;;;;;;;22.77;17.90;;;18.20;96.80;;;;;;5035332;28;20107;-73
2022/10/24 03:23:21;;;;;;;24.58;18.73;;;18.20;96.90;;;;;;5033892;28;20053;-72
2022/10/24 03:25:47;;;;;;;24.67;19.45;;;18.10;96.80;;;;;;5034994;28;20061;-72
2022/10/24 03:28:13;;;;;;;26.38;17.55;;;18.10;96.90;;;;;;5035350;28;20406;-73
2022/10/24 03:30:39;;;;;;;27.70;19.13;;;18.10;96.90;;;;;;5034884;28;20018;-72
2022/10/24 03:33:05;;;;;;;20.70;17.75;;;18.10;97.00;;;;;;5034991;28;20024;-73
2022/10/24 03:35:31;;;;;;;28.30;18.95;;;18.10;97.00;;;;;;5034761;28;20025;-72
2022/10/24 03:37:56;;;;;;;31.45;18.65;;;18.10;96.90;;;;;;5034802;28;20036;-74
2022/10/24 03:40:22;;;;;;;24.83;19.30;;;18.10;96.90;;;;;;5034837;28;20471;-74
2022/10/24 03:42:48;;;;;;;25.55;20.33;;;18.10;97.00;;;;;;5034635;28;20053;-73
2022/10/24 03:45:14;;;;;;;26.05;19.48;;;18.10;97.00;;;;;;5034493;28;20549;-72
2022/10/24 03:47:40;;;;;;;24.45;18.98;;;18.10;97.10;;;;;;5034873;28;20019;-72
2022/10/24 03:50:06;;;;;;;24.30;19.08;;;18.10;97.10;;;;;;5034806;28;20029;-74
2022/10/24 03:52:32;;;;;;;27.30;18.52;;;18.10;97.10;;;;;;5034622;28;20503;-72
2022/10/24 03:54:58;;;;;;;25.58;18.48;;;18.10;97.30;;;;;;5034195;28;20025;-72
2022/10/24 03:57:24;;;;;;;25.10;19.45;;;18.10;97.10;;;;;;5034201;28;20026;-74
2022/10/24 03:59:49;;;;;;;27.58;19.92;;;18.10;97.10;;;;;;5034385;28;20151;-73
2022/10/24 04:02:15;;;;;;;27.92;19.40;;;18.10;97.20;;;;;;5034321;28;20079;-74
2022/10/24 04:04:41;;;;;;;26.65;20.05;;;18.00;97.00;;;;;;5034555;28;20100;-75
2022/10/24 04:07:07;;;;;;;26.85;20.38;;;18.00;97.10;;;;;;5034207;28;20029;-72
2022/10/24 04:09:34;;;;;;;26.60;19.63;;;18.00;97.10;;;;;;5034399;28;20018;-73
2022/10/24 04:12:02;;;;;;;26.63;20.65;;;18.00;97.10;;;;;;5032925;28;20053;-73
2022/10/24 04:14:29;;;;;;;29.45;19.23;;;18.00;97.10;;;;;;5034583;28;20037;-76
2022/10/24 04:16:54;;;;;;;25.92;19.73;;;18.00;97.20;;;;;;5034553;28;20029;-74
2022/10/24 04:19:20;;;;;;;24.15;20.15;;;18.00;97.30;;;;;;5032603;28;20052;-74
2022/10/24 04:21:46;;;;;;;29.13;19.48;;;18.00;97.20;;;;;;5032745;28;20029;-78
2022/10/24 04:24:13;;;;;;;27.08;22.13;;;18.00;97.20;;;;;;5033918;28;20099;-77
2022/10/24 04:26:38;;;;;;;25.92;20.38;;;17.90;97.30;;;;;;5033595;28;20455;-76
2022/10/24 04:29:04;;;;;;;26.27;20.75;;;18.00;97.40;;;;;;5033636;28;20018;-77
2022/10/24 04:31:30;;;;;;;25.80;20.75;;;18.00;97.40;;;;;;5032243;28;20040;-78
2022/10/24 04:33:55;;;;;;;26.48;20.40;;;18.00;97.40;;;;;;5033706;28;20029;-76
2022/10/24 04:36:21;;;;;;;25.98;20.00;;;18.00;97.30;;;;;;5032452;28;20026;-78
2022/10/24 04:38:48;;;;;;;29.05;21.08;;;17.90;97.30;;;;;;5033352;28;20041;-76
2022/10/24 04:41:14;;;;;;;27.20;20.30;;;17.90;97.40;;;;;;5034238;28;20426;-77
2022/10/24 04:43:40;;;;;;;31.60;20.95;;;17.90;97.40;;;;;;5033389;28;20057;-76
2022/10/24 04:46:06;;;;;;;25.85;19.85;;;17.90;97.40;;;;;;5033426;28;20079;-78
2022/10/24 04:48:31;;;;;;;23.70;18.63;;;17.90;97.40;;;;;;5033459;28;20022;-76
2022/10/24 04:50:57;;;;;;;26.13;19.80;;;17.90;97.40;;;;;;5033171;28;20026;-75
2022/10/24 04:53:23;;;;;;;25.90;19.17;;;17.90;97.40;;;;;;5033463;28;20021;-75
2022/10/24 04:55:49;;;;;;;26.77;20.20;;;17.80;97.40;;;;;;5033086;28;20033;-78
2022/10/24 04:58:15;;;;;;;26.15;19.17;;;17.70;97.50;;;;;;5031809;28;20049;-75
2022/10/24 05:00:45;;;;;;;29.48;18.38;;;17.60;97.50;;;;;;5033081;28;20030;-78
2022/10/24 05:03:11;;;;;;;27.08;18.00;;;17.60;97.40;;;;;;5033143;28;20470;-77
2022/10/24 05:05:37;;;;;;;25.02;18.05;;;17.60;97.50;;;;;;5033154;28;20049;-73
2022/10/24 05:08:03;;;;;;;22.05;17.27;;;17.50;97.50;;;;;;5065287;28;20482;-72
2022/10/24 05:10:29;;;;;;;23.05;17.48;;;17.60;97.70;;;;;;5032999;28;20083;-72
2022/10/24 05:12:54;;;;;;;26.35;17.88;;;17.50;97.50;;;;;;5015314;28;20083;-74
2022/10/24 05:15:20;;;;;;;21.65;17.60;;;17.50;97.50;;;;;;5033009;28;20021;-75
2022/10/24 05:17:46;;;;;;;22.15;17.42;;;17.50;97.60;;;;;;5032831;28;20032;-74
2022/10/24 05:20:14;;;;;;;23.17;18.25;;;17.50;97.60;;;;;;5031608;28;20026;-72
2022/10/24 05:22:39;;;;;;;21.58;18.27;;;17.40;97.50;;;;;;5033189;28;20028;-72
2022/10/24 05:25:06;;;;;;;23.27;17.23;;;17.40;97.50;;;;;;5033121;28;20025;-72
2022/10/24 05:27:31;;;;;;;23.90;17.48;;;17.40;97.50;;;;;;5033158;28;20030;-74
2022/10/24 05:29:57;;;;;;;24.48;17.60;;;17.40;97.50;;;;;;5033086;28;20029;-74
2022/10/24 05:32:23;;;;;;;25.77;17.92;;;17.40;97.60;;;;;;5032187;28;20037;-73
2022/10/24 05:34:50;;;;;;;21.05;16.83;;;17.30;97.60;;;;;;5031679;28;20029;-77
2022/10/24 05:37:15;;;;;;;19.02;16.60;;;17.30;97.50;;;;;;5032806;28;20482;-76
2022/10/24 05:39:41;;;;;;;21.20;16.23;;;17.40;97.50;;;;;;5033963;28;20055;-74
2022/10/24 05:42:07;;;;;;;22.08;16.65;;;17.40;97.50;;;;;;5029946;28;20034;-73
2022/10/24 05:44:33;;;;;;;25.20;16.40;;;17.40;97.30;;;;;;5035967;28;20021;-74
2022/10/24 05:46:59;;;;;;;21.83;16.90;;;17.40;97.30;;;;;;5036307;28;20048;-71
2022/10/24 05:49:25;;;;;;;20.70;15.88;;;17.40;97.20;;;;;;5036545;28;20018;-73
2022/10/24 05:51:53;;;;;;;19.10;15.27;;;17.40;97.10;;;;;;5050518;28;20040;-73
2022/10/24 05:54:19;;;;;;;18.17;14.45;;;17.40;97.10;;;;;;5056341;28;20028;-73
2022/10/24 05:56:44;;;;;;;21.13;15.90;;;17.40;97.10;;;;;;5056316;28;20025;-74
2022/10/24 05:59:10;;;;;;;19.52;15.45;;;17.40;97.00;;;;;;5056442;28;20115;-74
2022/10/24 06:01:36;;;;;;;19.80;15.02;;;17.40;97.00;;;;;;5037669;28;20025;-73
2022/10/24 06:04:01;;;;;;;21.35;16.10;;;17.40;97.10;;;;;;5017156;28;20049;-74
2022/10/24 06:06:27;;;;;;;21.83;15.65;;;17.50;97.00;;;;;;5024210;28;20047;-72
2022/10/24 06:08:53;;;;;;;20.42;15.27;;;17.50;97.00;;;;;;5024869;28;20091;-72
2022/10/24 06:11:19;;;;;;;24.02;15.30;;;17.50;97.00;;;;;;5021168;28;20044;-74
2022/10/24 06:13:45;;;;;;;23.42;15.07;;;17.50;97.00;;;;;;5019591;28;21804;-68
2022/10/24 06:16:13;;;;;;;19.13;14.70;;;17.50;97.00;;;;;;5019074;28;20084;-67
2022/10/24 06:18:40;;;;;;;22.35;15.52;;;17.50;96.90;;;;;;5006201;28;20413;-70
2022/10/24 06:21:07;;;;;;;20.25;14.25;;;17.60;96.80;;;;;;5018593;28;20037;-67
2022/10/24 06:23:34;;;;;;;21.23;15.65;;;17.60;96.80;;;;;;5016812;28;20153;-69
2022/10/24 06:26:01;;;;;;;21.05;15.13;;;17.60;96.70;;;;;;5018689;28;20021;-67
2022/10/24 06:28:27;;;;;;;21.38;15.45;;;17.70;96.70;;;;;;5018187;28;20496;-73
2022/10/24 06:30:56;;;;;;;20.65;14.55;;;17.70;96.70;;;;;;5019641;28;20462;-68
2022/10/24 06:33:21;;;;;;;21.90;14.93;;;17.80;96.50;;;;;;5018412;28;20037;-65
2022/10/24 06:35:47;;;;;;;27.83;14.27;;;17.90;96.40;;;;;;5018470;28;20018;-65
2022/10/24 06:38:12;;;;;;;22.95;14.98;;;18.00;96.30;;;;;;5018386;28;20526;-70
2022/10/24 06:40:41;;;;;;;23.33;14.50;;;18.10;96.00;;;;;;5019405;28;20034;-69
2022/10/24 06:43:07;;;;;;;23.88;14.38;;;18.20;95.90;;;;;;5020159;28;20021;-68
2022/10/24 06:45:34;;;;;;;22.50;14.63;;;18.30;95.60;;;;;;5007026;28;20033;-69
2022/10/24 06:48:00;;;;;;;19.17;14.30;;;18.40;95.50;;;;;;5029729;28;20021;-72
2022/10/24 06:50:25;;;;;;;16.58;14.75;;;18.40;95.30;;;;;;5034213;28;20032;-68
2022/10/24 06:52:51;;;;;;;19.27;14.55;;;18.50;95.20;;;;;;5032248;28;20018;-67
2022/10/24 06:55:17;;;;;;;21.33;14.77;;;18.60;95.10;;;;;;5030936;28;20056;-68
2022/10/24 06:57:43;;;;;;;20.52;14.75;;;18.80;94.70;;;;;;5035399;28;20029;-66
2022/10/24 07:00:09;;;;;;;20.05;13.60;;;18.80;94.60;;;;;;5035510;28;20026;-73
2022/10/24 07:02:35;;;;;;;23.15;15.13;;;18.80;94.50;;;;;;5035395;28;20104;-66
2022/10/24 07:05:01;;;;;;;27.25;14.00;;;18.90;94.40;;;;;;5034531;28;20145;-71
2022/10/24 07:07:26;;;;;;;21.45;13.88;;;19.00;94.20;;;;;;5035117;28;20029;-70
2022/10/24 07:09:54;;;;;;;23.95;14.90;;;19.10;93.90;;;;;;5035083;28;20386;-66
2022/10/24 07:12:24;;;;;;;30.92;15.07;;;19.20;93.80;;;;;;5034724;28;20091;-69
2022/10/24 07:14:50;;;;;;;24.55;15.05;;;19.30;93.80;;;;;;5035392;28;20022;-71
2022/10/24 07:17:16;;;;;;;24.30;15.23;;;19.40;93.40;;;;;;5053635;28;20029;-74
2022/10/24 07:19:42;;;;;;;21.52;14.63;;;19.40;93.10;;;;;;5054549;28;20140;-69
2022/10/24 07:22:09;;;;;;;22.13;14.95;;;19.50;93.00;;;;;;5055700;28;20057;-75
2022/10/24 07:24:35;;;;;;;21.77;13.93;;;19.50;92.80;;;;;;5054326;28;20123;-76
2022/10/24 07:27:02;;;;;;;20.08;14.00;;;19.50;92.80;;;;;;5054041;28;20022;-77
2022/10/24 07:29:28;;;;;;;20.33;13.48;;;19.60;92.70;;;;;;5054244;28;20033;-71
2022/10/24 07:31:54;;;;;;;25.38;14.80;;;19.70;92.50;;;;;;5050205;28;20026;-69
2022/10/24 07:34:25;;;;;;;32.20;16.45;;;19.70;92.40;;;;;;5022475;28;20203;-77
2022/10/24 07:36:52;;;;;;;22.48;15.00;;;19.80;92.40;;;;;;5030222;28;20033;-71
2022/10/24 07:39:18;;;;;;;25.58;14.32;;;19.80;92.10;;;;;;5023818;28;20089;-72
2022/10/24 07:41:44;;;;;;;21.42;13.48;;;19.80;92.00;;;;;;5034927;28;20155;-74
2022/10/24 07:44:10;;;;;;;25.83;13.95;;;19.90;92.30;;;;;;5035509;28;20037;-69
2022/10/24 07:46:39;;;;;;;24.00;15.25;;;19.90;91.90;;;;;;5034382;28;20025;-76
2022/10/24 07:49:04;;;;;;;20.98;14.55;;;19.90;91.70;;;;;;5035178;28;20374;-72
2022/10/24 07:51:30;;;;;;;25.00;15.77;;;19.90;91.70;;;;;;5034733;28;20022;-70
2022/10/24 07:53:57;;;;;;;23.70;14.82;;;19.90;91.70;;;;;;5034698;28;20029;-75
2022/10/24 07:56:23;;;;;;;26.45;16.60;;;20.00;91.40;;;;;;5036318;28;20025;-74
2022/10/24 07:58:49;;;;;;;24.55;15.25;;;19.90;91.50;;;;;;5034477;28;20439;-72
2022/10/24 08:01:21;;;;;;;25.52;14.75;;;19.90;91.40;;;;;;5034184;28;20068;-67
2022/10/24 08:03:47;;;;;;;25.25;14.77;;;19.90;91.30;;;;;;5032068;28;20021;-67
2022/10/24 08:06:17;;;;;;;24.52;14.82;;;20.00;91.40;;;;;;5033395;28;20029;-70
2022/10/24 08:08:43;;;;;;;21.98;14.70;;;20.00;91.50;;;;;;5034189;28;20029;-68
2022/10/24 08:11:14;;;;;;;26.08;15.68;;;20.10;91.20;;;;;;5032833;28;20468;-72
2022/10/24 08:13:40;;;;;;;22.08;13.73;;;20.10;91.30;;;;;;5034257;28;20034;-68
2022/10/24 08:16:08;;;;;;;23.95;14.98;;;20.10;90.90;;;;;;5036353;28;20352;-67
2022/10/24 08:18:35;;;;;;;21.63;14.60;;;20.20;91.10;;;;;;5031927;28;20049;-68
2022/10/24 08:21:04;;;;;;;32.13;15.60;;;20.20;90.90;;;;;;5033708;28;20033;-70
2022/10/24 08:23:30;;;;;;;26.08;15.02;;;20.30;90.90;;;;;;5033728;28;20497;-68
2022/10/24 08:25:56;;;;;;;22.92;13.27;;;20.40;90.90;;;;;;5033572;28;20030;-70
2022/10/24 08:28:22;;;;;;;25.15;15.18;;;20.50;91.00;;;;;;5033557;28;20035;-68
2022/10/24 08:30:59;;;;;;;22.85;13.95;;;20.60;90.90;;;;;;5039991;28;20088;-69
2022/10/24 08:33:25;;;;;;;25.25;13.25;;;20.60;90.70;;;;;;5049370;28;20024;-68
2022/10/24 08:35:54;;;;;;;23.70;13.48;;;20.70;90.70;;;;;;5031421;28;20060;-77
2022/10/24 08:38:22;;;;;;;28.05;13.80;;;20.80;90.50;;;;;;5034861;28;20025;-81
2022/10/24 08:40:48;;;;;;;23.48;14.02;;;20.90;90.70;;;;;;5033956;28;20108;-79
2022/10/24 08:43:16;;;;;;;21.85;12.63;;;20.90;90.70;;;;;;5033973;28;20056;-69
2022/10/24 08:45:48;;;;;;;27.10;14.02;;;21.00;90.60;;;;;;5034410;28;20025;-72
2022/10/24 08:48:20;;;;;;;24.08;13.40;;;21.10;90.80;;;;;;5032431;28;20420;-78
2022/10/24 08:50:52;;;;;;;18.40;13.48;;;21.20;90.50;;;;;;5034177;28;20509;-71
2022/10/24 08:53:26;;;;;;;23.38;13.25;;;21.20;90.30;;;;;;5033529;28;20413;-71
2022/10/24 08:55:57;;;;;;;26.08;15.63;;;21.30;90.40;;;;;;5033807;28;20030;-71
2022/10/24 08:58:33;;;;;;;23.73;13.93;;;21.30;90.20;;;;;;5033754;28;20042;-70
2022/10/24 09:01:02;;;;;;;21.75;13.35;;;21.40;90.30;;;;;;5033471;28;20076;-71
2022/10/24 09:03:45;;;;;;;21.95;13.15;;;21.50;90.00;;;;;;5033698;28;20044;-70
2022/10/24 09:06:18;;;;;;;20.67;13.73;;;21.60;90.20;;;;;;5031600;28;20023;-70
2022/10/24 09:08:52;;;;;;;18.95;12.38;;;21.70;90.10;;;;;;5032095;28;20032;-70
2022/10/24 09:11:29;;;;;;;21.25;12.90;;;21.80;90.10;;;;;;5027034;28;20026;-71
2022/10/24 09:13:55;;;;;;;24.38;13.60;;;21.90;90.00;;;;;;5028779;28;20459;-73
2022/10/24 09:16:23;;;;;;;22.15;12.00;;;22.00;89.10;;;;;;5032873;28;20382;-72
2022/10/24 09:18:52;;;;;;;22.73;13.60;;;22.00;88.60;;;;;;5032265;28;20141;-72
2022/10/24 09:21:18;;;;;;;25.83;13.18;;;22.10;88.50;;;;;;5031618;28;20076;-72
2022/10/24 09:23:44;;;;;;;27.40;13.18;;;22.20;88.10;;;;;;5027753;28;20514;-70
2022/10/24 09:26:27;;;;;;;19.45;11.57;;;22.20;88.10;;;;;;5031199;28;20034;-70
2022/10/24 09:28:55;;;;;;;17.80;11.87;;;22.30;88.60;;;;;;5033217;28;20383;-73
2022/10/24 09:31:23;;;;;;;22.75;12.60;;;22.40;87.80;;;;;;5032874;28;20105;-72
2022/10/24 09:33:51;;;;;;;14.63;10.20;;;22.60;87.50;;;;;;5032894;28;20112;-72
2022/10/24 09:36:19;;;;;;;21.00;10.88;;;22.70;87.40;;;;;;5031310;28;20029;-70
2022/10/24 09:38:47;;;;;;;19.67;10.00;;;22.80;86.80;;;;;;5032635;28;20566;-72
2022/10/24 09:41:16;;;;;;;14.52;10.10;;;22.90;86.50;;;;;;5011802;28;20541;-74
2022/10/24 09:43:49;;;;;;;18.63;9.68;;;23.10;86.40;;;;;;5013306;28;20490;-72
2022/10/24 09:46:25;;;;;;;16.67;8.32;;;23.20;86.40;;;;;;5013135;28;20014;-71
2022/10/24 09:48:57;;;;;;;14.38;9.35;;;23.40;86.10;;;;;;5012977;28;20021;-70
2022/10/24 09:51:37;;;;;;;12.75;7.93;;;23.50;85.40;;;;;;5011482;28;20309;-71
2022/10/24 09:54:23;;;;;;;13.88;7.35;;;23.60;84.20;;;;;;5021956;28;20091;-74
2022/10/24 09:57:01;;;;;;;13.35;7.75;;;23.70;83.70;;;;;;5012901;28;20021;-71
2022/10/24 09:59:46;;;;;;;17.83;8.43;;;23.90;82.50;;;;;;5012846;28;20109;-71
2022/10/24 10:02:27;;;;;;;18.67;7.50;;;24.00;82.90;;;;;;5012811;28;20471;-72
2022/10/24 10:05:02;;;;;;;14.38;7.38;;;24.10;82.20;;;;;;5050019;28;20035;-72
2022/10/24 10:07:31;;;;;;;17.98;7.63;;;24.20;81.00;;;;;;5032696;28;20033;-71
2022/10/24 10:10:03;;;;;;;14.80;7.07;;;24.30;80.50;;;;;;5032787;28;20026;-71
2022/10/24 10:12:36;;;;;;;17.23;7.63;;;24.40;80.60;;;;;;5033493;28;20029;-71
2022/10/24 10:15:16;;;;;;;13.10;7.05;;;24.50;80.00;;;;;;5033959;28;20022;-70
2022/10/24 10:17:50;;;;;;;13.85;7.30;;;24.60;80.20;;;;;;5031494;28;20033;-70
2022/10/24 10:20:26;;;;;;;16.42;7.40;;;24.70;79.00;;;;;;5028805;28;20053;-72
2022/10/24 10:22:51;;;;;;;13.45;7.03;;;24.80;78.50;;;;;;5030066;28;20026;-73
2022/10/24 10:25:31;;;;;;;12.20;7.20;;;24.90;78.60;;;;;;5032015;28;20460;-72
2022/10/24 10:28:00;;;;;;;17.23;8.27;;;25.00;78.20;;;;;;5029549;28;20063;-76
2022/10/24 10:30:27;;;;;;;14.63;8.55;;;25.00;77.70;;;;;;5058554;28;20305;-75
2022/10/24 10:33:10;;;;;;;16.80;7.95;;;25.10;77.60;;;;;;5036109;28;20525;-73
2022/10/24 10:35:51;;;;;;;16.50;8.80;;;25.10;77.30;;;;;;5035016;28;20096;-72
2022/10/24 10:38:47;;;;;;;22.63;7.47;;;25.10;77.70;;;;;;5035690;28;20034;-74
2022/10/24 10:41:28;;;;;;;14.05;7.43;;;25.00;77.10;;;;;;5015726;28;20478;-76
2022/10/24 10:44:19;;;;;;;18.38;9.80;;;25.00;77.10;;;;;;5015552;28;20033;-70
2022/10/24 10:47:17;;;;;;;15.20;7.70;;;25.00;77.60;;;;;;5015392;28;20026;-67
2022/10/24 10:49:45;;;;;;;16.85;8.45;;;25.00;77.50;;;;;;5017585;28;20083;-74
2022/10/24 10:52:17;;;;;;;20.20;8.80;;;25.10;78.00;;;;;;5035322;28;20037;-72
2022/10/24 10:55:14;;;;;;;20.17;9.30;;;25.30;77.90;;;;;;5034984;28;20026;-73
2022/10/24 10:57:53;;;;;;;17.30;7.85;;;25.40;77.90;;;;;;5038119;22;20060;-74
2022/10/24 11:00:36;;;;;;;18.90;8.25;;;25.50;76.10;;;;;;5034960;28;20090;-74
2022/10/24 11:03:19;;;;;;;14.35;8.50;;;25.60;75.90;;;;;;5033746;28;20029;-70
2022/10/24 11:06:01;;;;;;;19.90;8.73;;;25.70;75.30;;;;;;5034125;28;20112;-72
2022/10/24 11:08:27;;;;;;;19.02;9.27;;;25.80;75.20;;;;;;5034878;28;20025;-75
2022/10/24 11:11:01;;;;;;;18.88;10.95;;;25.90;75.20;;;;;;5034783;28;20427;-74
2022/10/24 11:13:33;;;;;;;16.17;7.55;;;25.90;75.20;;;;;;5035036;28;20045;-75
2022/10/24 11:16:05;;;;;;;18.92;8.88;;;25.90;74.80;;;;;;5033572;28;20533;-77
2022/10/24 11:18:39;;;;;;;17.17;10.27;;;26.00;74.60;;;;;;5035200;28;20364;-76
2022/10/24 11:21:20;;;;;;;17.83;9.25;;;25.90;74.90;;;;;;5035167;28;20083;-72
2022/10/24 11:24:03;;;;;;;14.88;9.68;;;25.90;74.80;;;;;;5033797;28;20374;-76
2022/10/24 11:26:41;;;;;;;19.13;9.73;;;25.80;75.10;;;;;;5034778;28;20028;-77
2022/10/24 11:29:37;;;;;;;15.25;8.57;;;25.80;75.00;;;;;;5035013;28;20071;-78
2022/10/24 11:32:11;;;;;;;19.10;8.57;;;25.80;74.60;;;;;;5035090;28;20022;-76
2022/10/24 11:34:41;;;;;;;18.73;10.73;;;25.80;73.80;;;;;;5034868;28;20029;-78
2022/10/24 11:37:11;;;;;;;17.30;9.55;;;25.90;78.20;;;;;;5034502;28;20026;-78
2022/10/24 11:39:47;;;;;;;22.63;7.53;;;25.80;76.70;;;;;;5025832;28;20089;-78
2022/10/24 11:42:16;;;;;;;18.67;11.27;;;25.70;74.50;;;;;;5014637;28;20018;-79
2022/10/24 11:44:57;;;;;;;24.70;10.07;;;25.60;75.50;;;;;;5015212;28;20049;-79
2022/10/24 11:47:25;;;;;;;19.10;10.10;;;25.50;74.70;;;;;;5014589;28;20029;-77
2022/10/24 11:50:14;;;;;;;13.52;8.18;;;25.50;76.30;;;;;;5014560;28;20200;-77
2022/10/24 11:52:50;;;;;;;19.67;10.10;;;25.50;74.40;;;;;;5020335;28;20419;-77
2022/10/24 11:55:25;;;;;;;34.60;10.00;;;25.60;75.70;;;;;;5032490;28;20366;-74
2022/10/24 11:57:55;;;;;;;18.08;8.13;;;25.70;73.60;;;;;;5033785;28;20049;-75
2022/10/24 12:00:28;;;;;;;14.90;8.05;;;25.90;76.10;;;;;;5033924;28;20033;-74
2022/10/24 12:03:31;;;;;;;19.27;9.95;;;26.00;73.70;;;;;;5032799;28;20029;-72
2022/10/24 12:06:31;;;;;;;25.23;8.63;;;26.10;72.50;;;;;;5022820;28;20030;-71
2022/10/24 12:09:06;;;;;;;12.07;7.75;;;26.10;72.40;;;;;;5022815;28;20490;-72
2022/10/24 12:12:09;;;;;;;18.52;9.75;;;26.20;71.60;;;;;;5029444;28;20037;-72
2022/10/24 12:14:47;;;;;;;19.77;10.63;;;26.30;71.80;;;;;;5025181;28;20033;-74
2022/10/24 12:17:31;;;;;;;17.33;9.50;;;26.40;72.00;;;;;;5025954;28;20343;-70
2022/10/24 12:20:00;;;;;;;14.77;9.82;;;26.50;72.70;;;;;;5023561;28;20121;-73
2022/10/24 12:22:36;;;;;;;14.05;7.50;;;26.50;72.40;;;;;;5029372;28;20033;-73
2022/10/24 12:25:20;;;;;;;17.00;10.82;;;26.50;72.00;;;;;;5025533;28;20056;-73
2022/10/24 12:28:00;;;;;;;15.60;9.95;;;26.60;70.70;;;;;;5020127;28;20088;-72
2022/10/24 12:30:30;;;;;;;11.27;7.45;;;26.70;72.60;;;;;;5014843;28;20034;-71
2022/10/24 12:33:24;;;;;;;16.38;9.55;;;26.70;71.50;;;;;;5020270;28;20036;-73
2022/10/24 12:35:57;;;;;;;16.48;8.48;;;26.60;70.50;;;;;;5042202;28;20033;-72
2022/10/24 12:38:28;;;;;;;16.70;10.10;;;26.50;71.90;;;;;;5051347;28;20521;-72
2022/10/24 12:41:04;;;;;;;19.30;9.60;;;26.50;71.90;;;;;;5018523;28;20531;-74
2022/10/24 12:43:34;;;;;;;14.20;8.63;;;26.50;71.80;;;;;;5013327;28;20109;-73
2022/10/24 12:46:23;;;;;;;15.93;7.68;;;26.40;71.60;;;;;;5021324;28;20508;-79